createdAt,value
2023-02-20T00:00:10.515Z,51.3
2023-02-20T00:01:11.917Z,51.3
2023-02-20T00:02:13.448Z,51.2
2023-02-20T00:03:15.103Z,51.2
2023-02-20T00:04:16.686Z,51.3
2023-02-20T00:05:18.093Z,51.3
2023-02-20T00:06:19.488Z,51.3
2023-02-20T00:07:20.874Z,51.3
2023-02-20T00:08:22.284Z,51.3
2023-02-20T00:09:23.678Z,51.3
2023-02-20T00:10:25.079Z,51.2
2023-02-20T00:11:26.487Z,51
2023-02-20T00:12:27.879Z,51.1
2023-02-20T00:13:29.274Z,51
2023-02-20T00:14:30.656Z,51
2023-02-20T00:15:32.160Z,51.2
2023-02-20T00:16:33.588Z,51.1
2023-02-20T00:17:35.013Z,51
2023-02-20T00:18:36.394Z,51
2023-02-20T00:19:37.808Z,50.9
2023-02-20T00:20:39.221Z,51
2023-02-20T00:21:40.625Z,51
2023-02-20T00:22:42.018Z,51
2023-02-20T00:23:43.469Z,51.1
2023-02-20T00:24:44.857Z,51
2023-02-20T00:25:46.282Z,51.1
2023-02-20T00:26:47.673Z,51
2023-02-20T00:27:49.062Z,50.9
2023-02-20T00:28:50.477Z,51.1
2023-02-20T00:29:51.848Z,50.9
2023-02-20T00:30:53.297Z,51
2023-02-20T00:31:54.790Z,51
2023-02-20T00:32:56.423Z,51
2023-02-20T00:33:57.817Z,50.9
2023-02-20T00:34:59.469Z,51.1
2023-02-20T00:36:00.853Z,50.9
2023-02-20T00:37:02.281Z,51
2023-02-20T00:38:03.763Z,51.1
2023-02-20T00:39:05.167Z,51.2
2023-02-20T00:40:06.564Z,51
2023-02-20T00:41:07.988Z,50.7
2023-02-20T00:42:09.460Z,50.8
2023-02-20T00:43:10.865Z,50.7
2023-02-20T00:44:12.298Z,50.7
2023-02-20T00:45:13.680Z,50.6
2023-02-20T00:46:16.315Z,50.7
2023-02-20T00:47:17.860Z,50.7
2023-02-20T00:48:19.383Z,50.5
2023-02-20T00:49:20.789Z,50.6
2023-02-20T00:50:22.193Z,50.7
2023-02-20T00:51:23.576Z,50.6
2023-02-20T00:52:24.971Z,50.5
2023-02-20T00:53:26.355Z,50.5
2023-02-20T00:54:27.759Z,51
2023-02-20T00:55:29.162Z,50.8
2023-02-20T00:56:30.541Z,50.8
2023-02-20T00:57:31.961Z,50.8
2023-02-20T00:58:33.377Z,50.8
2023-02-20T00:59:34.781Z,50.6
2023-02-20T01:00:36.166Z,50.6
2023-02-20T01:01:37.867Z,50.7
2023-02-20T01:02:39.603Z,50.7
2023-02-20T01:03:41.196Z,50.6
2023-02-20T01:04:42.597Z,50.7
2023-02-20T01:05:43.992Z,50.6
2023-02-20T01:06:45.374Z,50.7
2023-02-20T01:07:46.829Z,50.6
2023-02-20T01:08:48.415Z,50.5
2023-02-20T01:09:49.827Z,50.5
2023-02-20T01:10:51.222Z,50.5
2023-02-20T01:11:52.618Z,50.3
2023-02-20T01:12:54.029Z,50.5
2023-02-20T01:13:55.423Z,50.4
2023-02-20T01:14:56.830Z,50.4
2023-02-20T01:15:58.357Z,50.3
2023-02-20T01:17:00.082Z,50.4
2023-02-20T01:18:01.683Z,50.2
2023-02-20T01:19:03.103Z,50.3
2023-02-20T01:20:04.515Z,50.4
2023-02-20T01:21:05.941Z,50.5
2023-02-20T01:22:07.363Z,50.1
2023-02-20T01:23:08.758Z,50.2
2023-02-20T01:24:10.142Z,50.3
2023-02-20T01:25:11.555Z,50.1
2023-02-20T01:26:14.074Z,50
2023-02-20T01:27:15.674Z,50.2
2023-02-20T01:28:17.051Z,50.1
2023-02-20T01:29:18.477Z,50.2
2023-02-20T01:30:19.974Z,50.1
2023-02-20T01:31:21.609Z,50.2
2023-02-20T01:32:23.036Z,50
2023-02-20T01:33:24.427Z,50.1
2023-02-20T01:34:25.827Z,50.1
2023-02-20T01:35:27.226Z,49.9
2023-02-20T01:36:28.639Z,50
2023-02-20T01:37:30.039Z,50.1
2023-02-20T01:38:31.450Z,49.9
2023-02-20T01:39:32.837Z,50
2023-02-20T01:40:34.243Z,50
2023-02-20T01:41:35.640Z,49.9
2023-02-20T01:42:37.038Z,49.8
2023-02-20T01:43:38.462Z,49.9
2023-02-20T01:44:39.915Z,49.9
2023-02-20T01:45:41.299Z,49.9
2023-02-20T01:46:42.757Z,49.9
2023-02-20T01:47:44.289Z,49.9
2023-02-20T01:48:45.683Z,49.9
2023-02-20T01:49:47.108Z,49.6
2023-02-20T01:50:48.496Z,49.6
2023-02-20T01:51:49.924Z,49.6
2023-02-20T01:52:51.319Z,49.6
2023-02-20T01:53:52.703Z,49.5
2023-02-20T01:54:54.098Z,49.5
2023-02-20T01:55:55.494Z,49.4
2023-02-20T01:56:56.916Z,49.3
2023-02-20T01:57:58.290Z,49.5
2023-02-20T01:58:59.685Z,49.5
2023-02-20T02:00:01.085Z,49.6
2023-02-20T02:01:02.727Z,49.5
2023-02-20T02:02:04.296Z,49.4
2023-02-20T02:03:05.705Z,49.5
2023-02-20T02:04:07.128Z,49.4
2023-02-20T02:05:08.537Z,49.3
2023-02-20T02:06:10.328Z,49.5
2023-02-20T02:07:11.865Z,49.1
2023-02-20T02:08:13.272Z,48.7
2023-02-20T02:09:14.673Z,48.7
2023-02-20T02:10:16.040Z,48.8
2023-02-20T02:11:17.425Z,48.8
2023-02-20T02:12:18.815Z,48.8
2023-02-20T02:13:20.198Z,48.7
2023-02-20T02:14:21.589Z,48.9
2023-02-20T02:15:22.993Z,48.9
2023-02-20T02:16:24.738Z,48.7
2023-02-20T02:17:26.250Z,48.9
2023-02-20T02:18:27.654Z,48.5
2023-02-20T02:19:29.030Z,48.6
2023-02-20T02:20:30.415Z,48.6
2023-02-20T02:21:31.820Z,48.4
2023-02-20T02:22:33.228Z,48.3
2023-02-20T02:23:34.646Z,48.4
2023-02-20T02:24:36.068Z,48.5
2023-02-20T02:25:37.468Z,48.3
2023-02-20T02:26:38.864Z,48.4
2023-02-20T02:27:40.277Z,48.2
2023-02-20T02:28:41.700Z,48.1
2023-02-20T02:29:43.101Z,48.3
2023-02-20T02:30:44.636Z,48.3
2023-02-20T02:31:46.173Z,48.3
2023-02-20T02:32:47.738Z,48.2
2023-02-20T02:33:49.131Z,48.4
2023-02-20T02:34:50.545Z,48.5
2023-02-20T02:35:51.972Z,48.4
2023-02-20T02:36:53.342Z,48.4
2023-02-20T02:37:54.750Z,48.5
2023-02-20T02:38:56.325Z,48.5
2023-02-20T02:39:58.047Z,48.3
2023-02-20T02:40:59.457Z,48.4
2023-02-20T02:42:00.852Z,48.4
2023-02-20T02:43:02.283Z,48.3
2023-02-20T02:44:03.700Z,48.2
2023-02-20T02:45:05.125Z,48.3
2023-02-20T02:46:06.809Z,48.3
2023-02-20T02:47:08.243Z,48.2
2023-02-20T02:48:09.647Z,48.3
2023-02-20T02:49:11.058Z,48.2
2023-02-20T02:50:12.487Z,48
2023-02-20T02:51:13.896Z,48
2023-02-20T02:52:15.293Z,48.1
2023-02-20T02:53:16.688Z,48.2
2023-02-20T02:54:18.151Z,48.1
2023-02-20T02:55:19.635Z,48.2
2023-02-20T02:56:21.035Z,48
2023-02-20T02:57:22.611Z,48
2023-02-20T02:58:24.047Z,47.6
2023-02-20T02:59:25.443Z,47.8
2023-02-20T03:00:26.844Z,47.7
2023-02-20T03:01:28.214Z,47.9
2023-02-20T03:02:29.656Z,47.9
2023-02-20T03:03:31.038Z,47.9
2023-02-20T03:04:32.443Z,48.1
2023-02-20T03:05:33.936Z,48
2023-02-20T03:06:35.381Z,48
2023-02-20T03:07:36.789Z,48.1
2023-02-20T03:08:38.177Z,48
2023-02-20T03:09:39.605Z,48.1
2023-02-20T03:10:40.996Z,48.2
2023-02-20T03:11:42.576Z,48.2
2023-02-20T03:12:43.997Z,48.2
2023-02-20T03:13:45.429Z,48.1
2023-02-20T03:14:46.821Z,48.2
2023-02-20T03:15:48.226Z,48.1
2023-02-20T03:16:49.688Z,48.2
2023-02-20T03:17:51.094Z,47.9
2023-02-20T03:18:52.480Z,48
2023-02-20T03:19:53.887Z,47.9
2023-02-20T03:20:55.287Z,48
2023-02-20T03:21:56.682Z,48
2023-02-20T03:22:58.068Z,48.1
2023-02-20T03:23:59.472Z,47.9
2023-02-20T03:25:00.922Z,47.8
2023-02-20T03:26:02.300Z,47.9
2023-02-20T03:27:03.678Z,47.9
2023-02-20T03:28:05.076Z,47.6
2023-02-20T03:29:06.460Z,47.7
2023-02-20T03:30:07.947Z,47.5
2023-02-20T03:31:09.474Z,47.7
2023-02-20T03:32:11.139Z,47.8
2023-02-20T03:33:12.685Z,47.9
2023-02-20T03:34:14.114Z,47.8
2023-02-20T03:35:15.518Z,47.9
2023-02-20T03:36:16.922Z,47.6
2023-02-20T03:37:18.329Z,47.6
2023-02-20T03:38:19.732Z,47.9
2023-02-20T03:39:21.131Z,47.8
2023-02-20T03:40:22.608Z,47.7
2023-02-20T03:41:23.994Z,47.6
2023-02-20T03:42:25.475Z,47.5
2023-02-20T03:43:26.863Z,47.6
2023-02-20T03:44:28.256Z,47.5
2023-02-20T03:45:29.654Z,47.5
2023-02-20T03:46:31.026Z,47.4
2023-02-20T03:47:35.600Z,47.3
2023-02-20T03:48:37.165Z,47.5
2023-02-20T03:49:38.561Z,47.5
2023-02-20T03:50:39.953Z,47.5
2023-02-20T03:51:41.354Z,47.5
2023-02-20T03:52:42.760Z,47.4
2023-02-20T03:53:44.200Z,47.4
2023-02-20T03:54:45.625Z,47.3
2023-02-20T03:55:47.102Z,47.3
2023-02-20T03:56:48.501Z,47.4
2023-02-20T03:57:49.948Z,47.4
2023-02-20T03:58:51.362Z,47.2
2023-02-20T03:59:52.734Z,47.2
2023-02-20T04:00:56.648Z,47.1
2023-02-20T04:01:58.276Z,47
2023-02-20T04:02:59.677Z,46.8
2023-02-20T04:04:01.092Z,47.1
2023-02-20T04:05:02.482Z,47
2023-02-20T04:06:03.866Z,47.1
2023-02-20T04:07:05.222Z,46.9
2023-02-20T04:08:06.615Z,46.9
2023-02-20T04:09:08.030Z,46.9
2023-02-20T04:10:09.445Z,46.8
2023-02-20T04:11:11.991Z,46.8
2023-02-20T04:12:13.370Z,46.7
2023-02-20T04:13:14.794Z,46.6
2023-02-20T04:14:16.224Z,46.7
2023-02-20T04:15:17.622Z,46.6
2023-02-20T04:16:19.172Z,46.7
2023-02-20T04:17:20.681Z,46.8
2023-02-20T04:18:22.054Z,46.8
2023-02-20T04:19:23.450Z,46.9
2023-02-20T04:20:24.852Z,46.8
2023-02-20T04:21:26.246Z,46.6
2023-02-20T04:22:27.651Z,46.8
2023-02-20T04:23:29.045Z,46.9
2023-02-20T04:24:30.429Z,47.1
2023-02-20T04:25:31.914Z,47.6
2023-02-20T04:26:33.387Z,47.5
2023-02-20T04:27:34.772Z,48.2
2023-02-20T04:28:36.201Z,47.9
2023-02-20T04:29:37.591Z,48
2023-02-20T04:30:39.386Z,48.2
2023-02-20T04:31:41.000Z,47.7
2023-02-20T04:32:42.396Z,47.7
2023-02-20T04:33:43.780Z,48
2023-02-20T04:34:45.164Z,47.7
2023-02-20T04:35:46.642Z,48
2023-02-20T04:36:48.048Z,47.9
2023-02-20T04:37:49.429Z,47.9
2023-02-20T04:38:50.831Z,47.8
2023-02-20T04:39:52.252Z,47.9
2023-02-20T04:40:53.668Z,47.7
2023-02-20T04:41:55.139Z,47.7
2023-02-20T04:42:56.544Z,47.7
2023-02-20T04:43:57.939Z,48.5
2023-02-20T04:44:59.334Z,48.8
2023-02-20T04:46:00.858Z,48.2
2023-02-20T04:47:02.308Z,49.3
2023-02-20T04:48:03.707Z,49.1
2023-02-20T04:49:05.107Z,49.2
2023-02-20T04:50:06.556Z,49.1
2023-02-20T04:51:07.972Z,49.6
2023-02-20T04:52:09.388Z,48.2
2023-02-20T04:53:10.791Z,46
2023-02-20T04:54:12.166Z,45.1
2023-02-20T04:55:13.569Z,43.4
2023-02-20T04:56:14.935Z,42.4
2023-02-20T04:57:16.397Z,41.4
2023-02-20T04:58:17.814Z,42.3
2023-02-20T04:59:19.226Z,42
2023-02-20T05:00:20.618Z,41.5
2023-02-20T05:01:22.269Z,41.4
2023-02-20T05:02:23.752Z,41.4
2023-02-20T05:03:25.143Z,40.3
2023-02-20T05:04:26.588Z,39.7
2023-02-20T05:05:28.024Z,39.5
2023-02-20T05:06:29.406Z,39.3
2023-02-20T05:07:30.816Z,39.3
2023-02-20T05:08:32.209Z,39.5
2023-02-20T05:09:33.635Z,38.6
2023-02-20T05:10:35.054Z,38
2023-02-20T05:11:36.416Z,38
2023-02-20T05:12:37.833Z,38
2023-02-20T05:13:39.242Z,37.6
2023-02-20T05:14:40.723Z,38
2023-02-20T05:15:42.364Z,37.8
2023-02-20T05:16:43.777Z,37.1
2023-02-20T05:17:45.170Z,36.7
2023-02-20T05:18:46.901Z,36.5
2023-02-20T05:19:48.338Z,36.5
2023-02-20T05:20:49.743Z,36.4
2023-02-20T05:21:51.126Z,36.3
2023-02-20T05:22:52.532Z,36.2
2023-02-20T05:23:54.075Z,36.1
2023-02-20T05:24:55.477Z,35.9
2023-02-20T05:25:56.875Z,36
2023-02-20T05:26:58.280Z,35.6
2023-02-20T05:27:59.744Z,35.7
2023-02-20T05:29:01.135Z,35.1
2023-02-20T05:30:02.572Z,35.4
2023-02-20T05:31:04.031Z,35
2023-02-20T05:32:05.526Z,35.5
2023-02-20T05:33:06.942Z,35
2023-02-20T05:34:08.325Z,34.5
2023-02-20T05:35:09.734Z,35
2023-02-20T05:36:11.852Z,34.5
2023-02-20T05:37:13.466Z,34
2023-02-20T05:38:14.940Z,34.1
2023-02-20T05:39:16.335Z,34.2
2023-02-20T05:40:17.738Z,34.4
2023-02-20T05:41:19.127Z,34
2023-02-20T05:42:20.567Z,34.4
2023-02-20T05:43:22.021Z,33.9
2023-02-20T05:44:23.436Z,33.3
2023-02-20T05:45:24.827Z,33.6
2023-02-20T05:46:26.515Z,33.6
2023-02-20T05:47:27.965Z,33
2023-02-20T05:48:29.378Z,33.2
2023-02-20T05:49:30.762Z,33.6
2023-02-20T05:50:32.139Z,33.3
2023-02-20T05:51:34.541Z,33
2023-02-20T05:52:36.028Z,33
2023-02-20T05:53:37.431Z,32.3
2023-02-20T05:54:38.870Z,32.5
2023-02-20T05:55:40.266Z,32.4
2023-02-20T05:56:41.671Z,32.6
2023-02-20T05:57:43.082Z,32.9
2023-02-20T05:58:44.532Z,32.9
2023-02-20T05:59:45.934Z,32.7
2023-02-20T06:00:47.355Z,33.7
2023-02-20T06:01:48.750Z,32.9
2023-02-20T06:02:50.170Z,32.7
2023-02-20T06:03:51.858Z,32.7
2023-02-20T06:04:53.392Z,32.7
2023-02-20T06:05:54.798Z,32.8
2023-02-20T06:06:56.211Z,33
2023-02-20T06:07:57.627Z,33
2023-02-20T06:08:59.029Z,32.9
2023-02-20T06:10:00.402Z,32.6
2023-02-20T06:11:01.786Z,32.7
2023-02-20T06:12:03.172Z,32.6
2023-02-20T06:13:04.575Z,33.1
2023-02-20T06:14:06.073Z,32.9
2023-02-20T06:15:07.534Z,33
2023-02-20T06:16:09.300Z,32.1
2023-02-20T06:17:10.765Z,32.2
2023-02-20T06:18:12.175Z,32.2
2023-02-20T06:19:13.570Z,32
2023-02-20T06:20:14.951Z,32.2
2023-02-20T06:21:16.338Z,32.2
2023-02-20T06:22:17.739Z,32.5
2023-02-20T06:23:19.124Z,31.8
2023-02-20T06:24:20.489Z,31.7
2023-02-20T06:25:21.911Z,32.5
2023-02-20T06:26:23.407Z,32.2
2023-02-20T06:27:24.820Z,32.3
2023-02-20T06:28:26.217Z,32.1
2023-02-20T06:29:27.654Z,32
2023-02-20T06:30:29.231Z,31.4
2023-02-20T06:31:30.861Z,31.5
2023-02-20T06:32:32.369Z,31.3
2023-02-20T06:33:33.780Z,31.2
2023-02-20T06:34:35.189Z,31.1
2023-02-20T06:35:36.596Z,31.1
2023-02-20T06:36:38.018Z,31.8
2023-02-20T06:37:39.462Z,31.5
2023-02-20T06:38:40.849Z,31.4
2023-02-20T06:39:42.223Z,30.8
2023-02-20T06:40:43.798Z,31.8
2023-02-20T06:41:45.191Z,31.5
2023-02-20T06:42:46.596Z,31.7
2023-02-20T06:43:48.091Z,31.4
2023-02-20T06:44:49.566Z,31.5
2023-02-20T06:45:50.959Z,30.7
2023-02-20T06:46:52.413Z,31.4
2023-02-20T06:47:53.847Z,31.3
2023-02-20T06:48:55.252Z,31.3
2023-02-20T06:49:56.655Z,31.2
2023-02-20T06:50:58.039Z,31.6
2023-02-20T06:51:59.561Z,31.3
2023-02-20T06:53:00.962Z,30.5
2023-02-20T06:54:02.380Z,31
2023-02-20T06:55:03.798Z,31.1
2023-02-20T06:56:05.180Z,30.8
2023-02-20T06:57:06.574Z,31
2023-02-20T06:58:11.121Z,31.1
2023-02-20T06:59:12.829Z,30.8
2023-02-20T07:00:14.382Z,30.9
2023-02-20T07:01:15.890Z,31.5
2023-02-20T07:02:17.462Z,30.5
2023-02-20T07:03:18.996Z,30.5
2023-02-20T07:04:20.441Z,31.6
2023-02-20T07:05:21.847Z,30.8
2023-02-20T07:06:23.280Z,30.8
2023-02-20T07:07:24.682Z,31.2
2023-02-20T07:08:26.076Z,31.4
2023-02-20T07:09:27.481Z,32.2
2023-02-20T07:10:28.882Z,32.2
2023-02-20T07:11:30.289Z,32
2023-02-20T07:12:31.709Z,31.1
2023-02-20T07:13:33.168Z,30.7
2023-02-20T07:14:34.548Z,30.7
2023-02-20T07:15:36.017Z,30.9
2023-02-20T07:16:37.412Z,31.1
2023-02-20T07:17:38.815Z,30.6
2023-02-20T07:18:40.218Z,30.3
2023-02-20T07:19:41.589Z,29.8
2023-02-20T07:20:43.003Z,30.5
2023-02-20T07:21:44.388Z,29.9
2023-02-20T07:22:45.776Z,30.5
2023-02-20T07:23:47.155Z,30.3
2023-02-20T07:24:48.550Z,30.6
2023-02-20T07:25:49.989Z,30.2
2023-02-20T07:26:51.589Z,30
2023-02-20T07:27:53.022Z,31.1
2023-02-20T07:28:55.120Z,30
2023-02-20T07:29:56.527Z,29.3
2023-02-20T07:30:57.969Z,29.3
2023-02-20T07:31:59.856Z,29.5
2023-02-20T07:33:01.349Z,29.2
2023-02-20T07:34:02.744Z,29.5
2023-02-20T07:35:09.544Z,29.6
2023-02-20T07:36:11.671Z,29.1
2023-02-20T07:37:13.291Z,29.4
2023-02-20T07:38:14.737Z,29.7
2023-02-20T07:39:16.120Z,29.2
2023-02-20T07:40:17.516Z,29.4
2023-02-20T07:41:18.888Z,29.4
2023-02-20T07:42:20.291Z,28.8
2023-02-20T07:43:21.705Z,29
2023-02-20T07:44:23.115Z,29.1
2023-02-20T07:45:24.504Z,28.7
2023-02-20T07:46:25.972Z,29.6
2023-02-20T07:47:27.405Z,28.6
2023-02-20T07:48:28.795Z,28.7
2023-02-20T07:49:30.232Z,29
2023-02-20T07:50:31.613Z,28.8
2023-02-20T07:51:33.063Z,28.5
2023-02-20T07:52:34.508Z,28.6
2023-02-20T07:53:35.921Z,28.4
2023-02-20T07:54:37.322Z,28.1
2023-02-20T07:55:38.723Z,28.1
2023-02-20T07:56:40.120Z,28.3
2023-02-20T07:57:41.502Z,28
2023-02-20T07:58:42.886Z,28.9
2023-02-20T07:59:44.310Z,28
2023-02-20T08:00:45.724Z,28
2023-02-20T08:01:47.236Z,27.6
2023-02-20T08:02:48.676Z,27.9
2023-02-20T08:03:50.064Z,28.4
2023-02-20T08:04:51.578Z,27.4
2023-02-20T08:05:53.159Z,27.6
2023-02-20T08:06:54.630Z,27.8
2023-02-20T08:07:56.009Z,28
2023-02-20T08:08:57.451Z,27.5
2023-02-20T08:09:58.851Z,27.8
2023-02-20T08:11:10.473Z,27.9
2023-02-20T08:12:11.972Z,28.5
2023-02-20T08:13:13.420Z,27.8
2023-02-20T08:14:14.843Z,27.4
2023-02-20T08:15:16.305Z,27.2
2023-02-20T08:16:18.192Z,27.3
2023-02-20T08:17:19.659Z,27.1
2023-02-20T08:18:24.454Z,27.7
2023-02-20T08:19:26.124Z,27
2023-02-20T08:20:28.061Z,27.2
2023-02-20T08:21:29.486Z,27.6
2023-02-20T08:22:42.229Z,27.5
2023-02-20T08:23:43.810Z,26.9
2023-02-20T08:24:45.242Z,27.4
2023-02-20T08:25:46.790Z,27.5
2023-02-20T08:26:48.199Z,27.9
2023-02-20T08:27:49.622Z,27.4
2023-02-20T08:28:51.006Z,27.2
2023-02-20T08:29:52.411Z,27.1
2023-02-20T08:30:53.794Z,26.8
2023-02-20T08:31:55.475Z,27
2023-02-20T08:32:57.338Z,27
2023-02-20T08:33:58.805Z,27.2
2023-02-20T08:35:00.229Z,27.5
2023-02-20T08:36:01.864Z,26.9
2023-02-20T08:37:03.341Z,26.7
2023-02-20T08:38:04.752Z,27.5
2023-02-20T08:39:06.177Z,26.7
2023-02-20T08:40:07.594Z,27.1
2023-02-20T08:41:08.984Z,26.8
2023-02-20T08:42:10.403Z,26.6
2023-02-20T08:43:11.834Z,27.2
2023-02-20T08:44:13.265Z,27
2023-02-20T08:45:14.676Z,27.2
2023-02-20T08:46:17.070Z,26.8
2023-02-20T08:47:18.564Z,26.9
2023-02-20T08:48:20.015Z,27.2
2023-02-20T08:49:25.653Z,27
2023-02-20T08:50:28.439Z,27
2023-02-20T08:51:29.833Z,26.4
2023-02-20T08:52:31.258Z,26.8
2023-02-20T08:53:32.649Z,26.9
2023-02-20T08:54:34.037Z,26.9
2023-02-20T08:55:35.426Z,26.6
2023-02-20T08:56:36.810Z,27.1
2023-02-20T08:57:38.205Z,26.5
2023-02-20T08:58:39.606Z,27
2023-02-20T08:59:41.008Z,26.6
2023-02-20T09:00:42.546Z,26.9
2023-02-20T09:01:44.240Z,27.2
2023-02-20T09:02:45.784Z,27.4
2023-02-20T09:03:47.234Z,27.2
2023-02-20T09:04:48.666Z,26.8
2023-02-20T09:05:50.089Z,27.2
2023-02-20T09:06:51.580Z,26.8
2023-02-20T09:07:52.955Z,27
2023-02-20T09:08:54.451Z,26.3
2023-02-20T09:09:55.941Z,26.4
2023-02-20T09:10:57.409Z,26.6
2023-02-20T09:11:58.897Z,26.3
2023-02-20T09:13:00.337Z,27
2023-02-20T09:14:01.728Z,26.5
2023-02-20T09:15:03.181Z,26.3
2023-02-20T09:16:04.654Z,26.6
2023-02-20T09:17:06.055Z,27.3
2023-02-20T09:18:07.466Z,26.8
2023-02-20T09:19:08.928Z,26.2
2023-02-20T09:20:10.424Z,26.5
2023-02-20T09:21:11.843Z,26.4
2023-02-20T09:22:13.250Z,26.8
2023-02-20T09:23:14.700Z,26.2
2023-02-20T09:24:16.072Z,26.6
2023-02-20T09:25:17.465Z,26.9
2023-02-20T09:26:18.904Z,26.4
2023-02-20T09:27:20.316Z,26.5
2023-02-20T09:28:21.846Z,26.8
2023-02-20T09:29:23.252Z,26.3
2023-02-20T09:30:24.913Z,26.7
2023-02-20T09:31:26.801Z,26.7
2023-02-20T09:32:28.667Z,26.7
2023-02-20T09:33:30.166Z,26.5
2023-02-20T09:34:31.655Z,26.5
2023-02-20T09:35:33.125Z,26.6
2023-02-20T09:36:34.501Z,26.5
2023-02-20T09:37:35.913Z,26.5
2023-02-20T09:38:37.347Z,26.5
2023-02-20T09:39:38.752Z,26.7
2023-02-20T09:40:40.148Z,26.6
2023-02-20T09:41:41.578Z,26.6
2023-02-20T09:42:44.572Z,26.3
2023-02-20T09:43:45.978Z,26.8
2023-02-20T09:44:47.390Z,26.1
2023-02-20T09:45:48.852Z,26.4
2023-02-20T09:46:50.220Z,26.4
2023-02-20T09:47:51.623Z,26.4
2023-02-20T09:48:53.018Z,26.4
2023-02-20T09:49:54.446Z,26.5
2023-02-20T09:50:55.860Z,26.5
2023-02-20T09:51:57.277Z,26.7
2023-02-20T09:52:58.684Z,26.4
2023-02-20T09:54:00.106Z,26.8
2023-02-20T09:55:01.515Z,26.7
2023-02-20T09:56:02.945Z,26.5
2023-02-20T09:57:04.546Z,26.6
2023-02-20T09:58:05.920Z,26.4
2023-02-20T09:59:07.306Z,27
2023-02-20T10:00:08.724Z,26.7
2023-02-20T10:01:10.163Z,26.5
2023-02-20T10:02:11.864Z,26.7
2023-02-20T10:03:13.750Z,26.5
2023-02-20T10:04:15.318Z,26.2
2023-02-20T10:05:16.796Z,26.7
2023-02-20T10:06:18.223Z,26.4
2023-02-20T10:07:19.626Z,26.7
2023-02-20T10:08:21.116Z,26.4
2023-02-20T10:09:22.524Z,26.2
2023-02-20T10:10:24.137Z,26.6
2023-02-20T10:11:25.647Z,26.5
2023-02-20T10:12:27.068Z,26.2
2023-02-20T10:13:28.440Z,26.1
2023-02-20T10:14:29.815Z,26
2023-02-20T10:15:31.199Z,26
2023-02-20T10:16:32.768Z,26.3
2023-02-20T10:17:34.178Z,26.1
2023-02-20T10:18:35.588Z,25.8
2023-02-20T10:19:36.968Z,26
2023-02-20T10:20:38.407Z,25.8
2023-02-20T10:21:39.835Z,25.8
2023-02-20T10:22:41.241Z,25.9
2023-02-20T10:23:42.890Z,25.9
2023-02-20T10:24:45.777Z,25.7
2023-02-20T10:25:47.313Z,26.2
2023-02-20T10:26:48.745Z,26
2023-02-20T10:27:50.139Z,26
2023-02-20T10:28:51.609Z,25.6
2023-02-20T10:29:53.027Z,25.5
2023-02-20T10:30:54.484Z,25.5
2023-02-20T10:31:56.196Z,25.5
2023-02-20T10:32:57.768Z,25.4
2023-02-20T10:33:59.248Z,26
2023-02-20T10:35:00.650Z,25.6
2023-02-20T10:36:02.099Z,25.7
2023-02-20T10:37:03.504Z,25.6
2023-02-20T10:38:04.891Z,25.7
2023-02-20T10:39:06.345Z,25.5
2023-02-20T10:40:07.893Z,26.2
2023-02-20T10:41:09.293Z,25.3
2023-02-20T10:42:10.712Z,25.4
2023-02-20T10:43:12.161Z,25.4
2023-02-20T10:44:13.566Z,25.7
2023-02-20T10:45:15.016Z,25.5
2023-02-20T10:46:17.159Z,25.1
2023-02-20T10:47:18.798Z,25.4
2023-02-20T10:48:20.210Z,25.3
2023-02-20T10:49:21.596Z,25.5
2023-02-20T10:50:23.021Z,25.2
2023-02-20T10:51:24.490Z,25.2
2023-02-20T10:52:34.979Z,25.5
2023-02-20T10:53:36.465Z,25.6
2023-02-20T10:54:37.881Z,25.2
2023-02-20T10:55:39.297Z,25.4
2023-02-20T10:56:40.725Z,25.2
2023-02-20T10:57:42.152Z,25.6
2023-02-20T10:58:43.564Z,25.5
2023-02-20T10:59:44.966Z,25.3
2023-02-20T11:00:46.437Z,25.4
2023-02-20T11:01:48.150Z,25.2
2023-02-20T11:02:49.592Z,25.5
2023-02-20T11:03:50.974Z,25.4
2023-02-20T11:04:52.376Z,25.3
2023-02-20T11:05:53.774Z,25.5
2023-02-20T11:06:55.259Z,25.5
2023-02-20T11:07:56.667Z,25.4
2023-02-20T11:08:58.071Z,25.4
2023-02-20T11:09:59.494Z,25
2023-02-20T11:11:00.897Z,25.3
2023-02-20T11:12:02.298Z,25.3
2023-02-20T11:13:03.725Z,25.2
2023-02-20T11:14:05.129Z,25.4
2023-02-20T11:15:06.550Z,25.4
2023-02-20T11:16:07.998Z,25.5
2023-02-20T11:17:09.462Z,25.3
2023-02-20T11:18:10.878Z,25.4
2023-02-20T11:19:12.293Z,25.6
2023-02-20T11:20:15.341Z,25.5
2023-02-20T11:21:16.716Z,25.7
2023-02-20T11:22:18.203Z,25.5
2023-02-20T11:23:19.672Z,25.3
2023-02-20T11:24:21.100Z,25.2
2023-02-20T11:25:22.499Z,25
2023-02-20T11:26:23.926Z,25.3
2023-02-20T11:27:25.383Z,25.4
2023-02-20T11:28:26.839Z,25.5
2023-02-20T11:29:28.425Z,25.3
2023-02-20T11:30:29.902Z,25.2
2023-02-20T11:31:31.657Z,25.1
2023-02-20T11:32:33.123Z,25.5
2023-02-20T11:33:34.507Z,25.2
2023-02-20T11:34:35.928Z,25.2
2023-02-20T11:35:37.319Z,25.3
2023-02-20T11:36:38.740Z,25
2023-02-20T11:37:55.543Z,25.4
2023-02-20T11:38:57.287Z,25.4
2023-02-20T11:39:58.697Z,25.2
2023-02-20T11:41:00.095Z,25.4
2023-02-20T11:42:01.476Z,25.4
2023-02-20T11:43:02.880Z,25.5
2023-02-20T11:44:04.298Z,25.4
2023-02-20T11:45:05.708Z,25.5
2023-02-20T11:46:07.187Z,25.7
2023-02-20T11:47:08.682Z,25.6
2023-02-20T11:48:10.099Z,25.4
2023-02-20T11:49:11.494Z,25.7
2023-02-20T11:50:20.836Z,25.7
2023-02-20T11:51:22.540Z,25.7
2023-02-20T11:52:23.933Z,25.9
2023-02-20T11:53:25.448Z,25.6
2023-02-20T11:54:26.829Z,25.6
2023-02-20T11:55:28.250Z,25.8
2023-02-20T11:56:29.644Z,25.7
2023-02-20T11:57:31.074Z,25.8
2023-02-20T11:58:32.478Z,25.6
2023-02-20T11:59:33.899Z,25.6
2023-02-20T12:00:35.311Z,25.6
2023-02-20T12:01:36.713Z,25.6
2023-02-20T12:02:38.236Z,25.8
2023-02-20T12:03:39.734Z,25.5
2023-02-20T12:04:41.177Z,25.7
2023-02-20T12:05:42.770Z,25.6
2023-02-20T12:06:44.263Z,25.7
2023-02-20T12:07:45.687Z,25.8
2023-02-20T12:08:47.166Z,25.7
2023-02-20T12:09:48.568Z,25.6
2023-02-20T12:10:49.960Z,25.4
2023-02-20T12:11:51.352Z,25.4
2023-02-20T12:12:52.743Z,25.6
2023-02-20T12:13:54.138Z,25.7
2023-02-20T12:14:55.542Z,25.4
2023-02-20T12:15:56.982Z,25.6
2023-02-20T12:16:58.391Z,25.9
2023-02-20T12:17:59.795Z,25.6
2023-02-20T12:19:01.172Z,25.6
2023-02-20T12:20:02.563Z,25.4
2023-02-20T12:21:03.990Z,25.3
2023-02-20T12:22:05.391Z,25.3
2023-02-20T12:23:06.796Z,25.4
2023-02-20T12:24:08.267Z,25.1
2023-02-20T12:25:09.692Z,25.3
2023-02-20T12:26:11.851Z,25.9
2023-02-20T12:27:13.450Z,25.6
2023-02-20T12:28:14.857Z,25.3
2023-02-20T12:29:16.253Z,25.3
2023-02-20T12:30:17.704Z,25.5
2023-02-20T12:31:19.451Z,25.2
2023-02-20T12:32:21.282Z,25.4
2023-02-20T12:33:22.816Z,25.2
2023-02-20T12:34:24.241Z,25.3
2023-02-20T12:35:25.694Z,25.1
2023-02-20T12:36:27.210Z,25.2
2023-02-20T12:37:28.632Z,25.3
2023-02-20T12:38:30.015Z,25.4
2023-02-20T12:39:31.455Z,25.4
2023-02-20T12:40:32.853Z,25.4
2023-02-20T12:41:34.292Z,25.3
2023-02-20T12:42:35.713Z,25.3
2023-02-20T12:43:37.128Z,25.4
2023-02-20T12:44:38.573Z,25.5
2023-02-20T12:45:39.997Z,25.5
2023-02-20T12:46:41.427Z,25.4
2023-02-20T12:47:42.831Z,25.6
2023-02-20T12:48:44.329Z,25.5
2023-02-20T12:49:45.729Z,25.3
2023-02-20T12:50:47.186Z,25.3
2023-02-20T12:51:48.578Z,25.3
2023-02-20T12:52:49.994Z,25.6
2023-02-20T12:53:51.386Z,25.3
2023-02-20T12:54:52.840Z,25.5
2023-02-20T12:55:54.245Z,25.5
2023-02-20T12:56:55.658Z,25.5
2023-02-20T12:57:57.051Z,25.4
2023-02-20T12:58:58.456Z,25.7
2023-02-20T12:59:59.925Z,25.5
2023-02-20T13:01:01.430Z,25.1
2023-02-20T13:02:02.889Z,25.4
2023-02-20T13:03:04.286Z,25.6
2023-02-20T13:04:05.691Z,25.6
2023-02-20T13:05:07.082Z,25.4
2023-02-20T13:06:08.484Z,25.5
2023-02-20T13:07:09.881Z,25.4
2023-02-20T13:08:11.265Z,25.5
2023-02-20T13:09:12.655Z,25.4
2023-02-20T13:10:14.132Z,25.2
2023-02-20T13:11:15.524Z,25.3
2023-02-20T13:12:16.956Z,25.3
2023-02-20T13:13:18.361Z,25.3
2023-02-20T13:14:19.761Z,25.5
2023-02-20T13:15:24.304Z,25.5
2023-02-20T13:16:25.831Z,25.6
2023-02-20T13:17:27.290Z,25.6
2023-02-20T13:18:28.701Z,25.4
2023-02-20T13:19:30.085Z,25.6
2023-02-20T13:20:31.492Z,25.4
2023-02-20T13:21:32.893Z,25.4
2023-02-20T13:22:34.305Z,25.6
2023-02-20T13:23:35.720Z,25.4
2023-02-20T13:24:37.134Z,25.5
2023-02-20T13:25:38.563Z,25.6
2023-02-20T13:26:39.963Z,25.5
2023-02-20T13:27:41.349Z,25.7
2023-02-20T13:28:42.869Z,25.4
2023-02-20T13:29:44.326Z,25.5
2023-02-20T13:30:45.720Z,25.7
2023-02-20T13:31:47.373Z,25.5
2023-02-20T13:32:48.839Z,25.5
2023-02-20T13:33:50.301Z,25.5
2023-02-20T13:34:51.717Z,25.5
2023-02-20T13:35:53.128Z,25.6
2023-02-20T13:36:54.528Z,25.5
2023-02-20T13:37:55.920Z,25.3
2023-02-20T13:38:57.313Z,25.7
2023-02-20T13:39:58.695Z,25.4
2023-02-20T13:41:00.146Z,25.4
2023-02-20T13:42:01.554Z,25.6
2023-02-20T13:43:02.966Z,25.4
2023-02-20T13:44:04.401Z,25.7
2023-02-20T13:45:05.803Z,25.5